createdAt,value
2018-08-12T00:00:17.341Z,99.90
2018-08-12T00:02:45.741Z,99.90
2018-08-12T00:05:14.175Z,99.90
2018-08-12T00:07:42.730Z,99.90
2018-08-12T00:10:12.137Z,99.90
2018-08-12T00:12:40.953Z,99.90
2018-08-12T00:15:11.561Z,99.90
2018-08-12T00:17:39.953Z,99.90
2018-08-12T00:20:10.721Z,99.90
2018-08-12T00:22:39.278Z,99.90
2018-08-12T00:25:10.205Z,99.90
2018-08-12T00:27:38.818Z,99.90
2018-08-12T00:30:08.493Z,99.90
2018-08-12T00:32:36.915Z,99.90
2018-08-12T00:35:07.230Z,99.90
2018-08-12T00:37:35.844Z,99.90
2018-08-12T00:40:05.641Z,99.90
2018-08-12T00:42:34.033Z,99.90
2018-08-12T00:45:02.462Z,99.90
2018-08-12T00:47:30.849Z,99.90
2018-08-12T00:49:59.233Z,99.90
2018-08-12T00:52:27.574Z,99.90
2018-08-12T00:54:55.943Z,99.90
2018-08-12T00:57:24.281Z,99.90
2018-08-12T00:59:52.702Z,99.90
2018-08-12T01:02:21.061Z,99.90
2018-08-12T01:04:49.555Z,99.90
2018-08-12T01:07:17.955Z,99.90
2018-08-12T01:09:46.385Z,99.90
2018-08-12T01:12:14.724Z,99.90
2018-08-12T01:14:43.132Z,99.90
2018-08-12T01:17:11.526Z,99.90
2018-08-12T01:19:39.865Z,99.90
2018-08-12T01:22:08.238Z,99.90
2018-08-12T01:24:36.601Z,99.90
2018-08-12T01:27:05.020Z,99.90
2018-08-12T01:29:33.447Z,99.90
2018-08-12T01:32:01.767Z,99.90
2018-08-12T01:34:30.125Z,99.90
2018-08-12T01:36:58.473Z,99.90
2018-08-12T01:39:26.849Z,99.90
2018-08-12T01:41:55.198Z,99.90
2018-08-12T01:44:23.568Z,99.90
2018-08-12T01:46:51.900Z,99.90
2018-08-12T01:49:20.254Z,99.90
2018-08-12T01:51:48.609Z,99.90
2018-08-12T01:54:16.973Z,99.90
2018-08-12T01:56:45.342Z,99.90
2018-08-12T01:59:13.910Z,99.90
2018-08-12T02:01:42.250Z,99.90
2018-08-12T02:04:10.641Z,99.90
2018-08-12T02:06:39.020Z,99.90
2018-08-12T02:09:08.965Z,99.90
2018-08-12T02:11:37.374Z,99.90
2018-08-12T02:14:06.037Z,99.90
2018-08-12T02:16:34.500Z,99.90
2018-08-12T02:19:02.867Z,99.90
2018-08-12T02:21:31.199Z,99.90
2018-08-12T02:23:59.589Z,99.90
2018-08-12T02:26:27.910Z,99.90
2018-08-12T02:28:56.298Z,99.90
2018-08-12T02:31:24.654Z,99.90
2018-08-12T02:33:53.186Z,99.90
2018-08-12T02:36:21.562Z,99.90
2018-08-12T02:38:49.933Z,99.90
2018-08-12T02:41:18.277Z,99.90
2018-08-12T02:43:46.638Z,99.90
2018-08-12T02:46:14.986Z,99.90
2018-08-12T02:48:43.301Z,99.90
2018-08-12T02:51:11.658Z,99.90
2018-08-12T02:53:39.967Z,99.90
2018-08-12T02:56:08.329Z,99.90
2018-08-12T02:58:36.688Z,99.90
2018-08-12T03:01:05.026Z,99.90
2018-08-12T03:03:33.359Z,99.90
2018-08-12T03:06:01.765Z,99.90
2018-08-12T03:08:30.134Z,99.90
2018-08-12T03:10:58.531Z,99.90
2018-08-12T03:13:26.899Z,99.90
2018-08-12T03:15:55.263Z,99.90
2018-08-12T03:18:23.569Z,99.90
2018-08-12T03:20:51.942Z,99.90
2018-08-12T03:23:20.469Z,99.90
2018-08-12T03:25:48.820Z,99.90
2018-08-12T03:28:17.181Z,99.90
2018-08-12T03:30:45.555Z,99.90
2018-08-12T03:33:13.906Z,99.90
2018-08-12T03:35:42.292Z,99.90
2018-08-12T03:38:10.795Z,99.90
2018-08-12T03:40:39.277Z,99.90
2018-08-12T03:43:07.626Z,99.90
2018-08-12T03:45:36.009Z,99.90
2018-08-12T03:48:04.888Z,99.90
2018-08-12T03:50:33.221Z,99.90
2018-08-12T03:53:01.538Z,99.90
2018-08-12T03:55:30.109Z,99.90
2018-08-12T03:57:58.428Z,99.90
2018-08-12T04:00:26.776Z,99.90
2018-08-12T04:02:55.134Z,99.90
2018-08-12T04:05:23.541Z,99.90
2018-08-12T04:07:51.933Z,99.90
2018-08-12T04:10:20.277Z,99.90
2018-08-12T04:12:48.593Z,99.90
2018-08-12T04:15:16.936Z,99.90
2018-08-12T04:17:45.266Z,99.90
2018-08-12T04:20:13.669Z,99.90
2018-08-12T04:22:41.999Z,99.90
2018-08-12T04:25:10.432Z,99.90
2018-08-12T04:27:38.761Z,99.90
2018-08-12T04:30:08.550Z,99.90
2018-08-12T04:32:37.066Z,99.90
2018-08-12T04:35:06.225Z,99.90
2018-08-12T04:37:34.601Z,99.90
2018-08-12T04:40:02.984Z,99.90
2018-08-12T04:42:31.496Z,99.90
2018-08-12T04:44:59.841Z,99.90
2018-08-12T04:47:28.251Z,99.90
2018-08-12T04:49:56.571Z,99.90
2018-08-12T04:52:25.009Z,99.90
2018-08-12T04:54:53.334Z,99.90
2018-08-12T04:57:21.721Z,99.90
2018-08-12T04:59:50.059Z,99.90
2018-08-12T05:02:18.434Z,99.90
2018-08-12T05:04:46.779Z,99.90
2018-08-12T05:07:16.758Z,99.90
2018-08-12T05:09:46.424Z,99.90
2018-08-12T05:12:15.496Z,99.90
2018-08-12T05:14:44.556Z,99.90
2018-08-12T05:17:13.741Z,99.90
2018-08-12T05:19:47.561Z,99.90
2018-08-12T05:22:16.830Z,99.90
2018-08-12T05:24:45.166Z,99.90
2018-08-12T05:27:14.872Z,99.90
2018-08-12T05:29:43.824Z,99.90
2018-08-12T05:32:14.782Z,99.90
2018-08-12T05:34:43.720Z,99.90
2018-08-12T05:37:12.178Z,99.90
2018-08-12T05:39:40.509Z,99.90
2018-08-12T05:42:08.990Z,99.90
2018-08-12T05:47:41.639Z,99.90
2018-08-12T05:50:11.123Z,99.90
2018-08-12T05:52:52.783Z,99.90
2018-08-12T05:55:21.426Z,99.90
2018-08-12T05:57:49.826Z,99.90
2018-08-12T06:00:18.235Z,99.90
2018-08-12T06:02:46.773Z,99.90
2018-08-12T06:05:15.070Z,99.90
2018-08-12T06:07:43.490Z,99.90
2018-08-12T06:10:12.825Z,99.90
2018-08-12T06:12:41.189Z,99.90
2018-08-12T06:15:10.811Z,99.90
2018-08-12T06:17:39.212Z,99.90
2018-08-12T06:20:09.765Z,99.90
2018-08-12T06:22:38.642Z,99.90
2018-08-12T06:25:09.492Z,99.90
2018-08-12T06:27:39.303Z,99.90
2018-08-12T06:30:11.671Z,99.90
2018-08-12T06:32:42.745Z,99.90
2018-08-12T06:35:12.037Z,99.90
2018-08-12T06:37:40.425Z,99.90
2018-08-12T06:40:11.302Z,99.90
2018-08-12T06:42:41.041Z,99.90
2018-08-12T06:45:11.762Z,99.90
2018-08-12T06:47:40.370Z,99.90
2018-08-12T06:50:09.871Z,99.90
2018-08-12T06:52:40.209Z,99.90
2018-08-12T06:55:11.661Z,99.90
2018-08-12T06:57:41.780Z,99.90
2018-08-12T07:00:14.981Z,99.90
2018-08-12T07:02:44.767Z,99.90
2018-08-12T07:05:19.348Z,99.90
2018-08-12T07:07:48.181Z,99.90
2018-08-12T07:10:18.007Z,99.90
2018-08-12T07:12:47.200Z,99.90
2018-08-12T07:15:17.529Z,99.90
2018-08-12T07:17:47.401Z,99.90
2018-08-12T07:20:17.569Z,99.90
2018-08-12T07:22:47.144Z,99.90
2018-08-12T07:25:16.280Z,99.90
2018-08-12T07:27:45.592Z,99.90
2018-08-12T07:30:17.585Z,99.90
2018-08-12T07:32:47.016Z,99.90
2018-08-12T07:35:15.409Z,99.90
2018-08-12T07:37:46.831Z,99.90
2018-08-12T07:40:19.105Z,99.90
2018-08-12T07:42:50.629Z,99.90
2018-08-12T07:45:19.093Z,99.90
2018-08-12T07:47:48.705Z,99.90
2018-08-12T07:50:18.046Z,99.90
2018-08-12T07:52:48.014Z,99.90
2018-08-12T07:55:17.479Z,99.90
2018-08-12T07:57:46.899Z,99.90
2018-08-12T08:00:19.008Z,99.90
2018-08-12T08:02:48.871Z,99.90
2018-08-12T08:05:18.824Z,99.90
2018-08-12T08:07:48.266Z,99.90
2018-08-12T08:10:18.943Z,99.90
2018-08-12T08:12:49.029Z,99.90
2018-08-12T08:15:22.043Z,99.90
2018-08-12T08:17:50.933Z,99.90
2018-08-12T08:20:20.357Z,99.90
2018-08-12T08:22:49.700Z,99.90
2018-08-12T08:25:18.814Z,99.90
2018-08-12T08:27:49.425Z,99.90
2018-08-12T08:30:18.256Z,99.90
2018-08-12T08:32:47.779Z,97.30
2018-08-12T08:35:16.149Z,99.90
2018-08-12T08:37:45.383Z,95.00
2018-08-12T08:40:17.643Z,96.90
2018-08-12T08:42:47.354Z,94.90
2018-08-12T08:45:18.680Z,96.10
2018-08-12T08:47:50.093Z,96.50
2018-08-12T08:50:20.630Z,97.10
2018-08-12T08:52:51.242Z,95.50
2018-08-12T08:55:20.549Z,97.00
2018-08-12T08:57:49.465Z,99.00
2018-08-12T09:00:20.891Z,96.20
2018-08-12T09:02:51.704Z,93.60
2018-08-12T09:05:20.397Z,92.70
2018-08-12T09:07:49.229Z,96.60
2018-08-12T09:10:18.565Z,93.00
2018-08-12T09:12:46.986Z,94.20
2018-08-12T09:15:16.993Z,91.30
2018-08-12T09:17:45.961Z,91.20
2018-08-12T09:20:15.884Z,93.70
2018-08-12T09:22:44.401Z,93.00
2018-08-12T09:25:13.323Z,92.10
2018-08-12T09:27:41.758Z,90.60
2018-08-12T09:30:13.059Z,93.40
2018-08-12T09:32:41.864Z,91.50
2018-08-12T09:35:10.263Z,87.60
2018-08-12T09:37:38.680Z,86.70
2018-08-12T09:40:15.010Z,91.40
2018-08-12T09:42:44.486Z,90.70
2018-08-12T09:45:17.369Z,89.00
2018-08-12T09:47:47.063Z,90.20
2018-08-12T09:50:17.615Z,87.40
2018-08-12T09:52:48.595Z,85.90
2018-08-12T09:55:17.957Z,86.70
2018-08-12T09:57:48.188Z,87.00
2018-08-12T10:00:23.513Z,86.70
2018-08-12T10:02:55.063Z,83.20
2018-08-12T10:05:25.063Z,86.90
2018-08-12T10:07:54.333Z,85.30
2018-08-12T10:10:23.525Z,82.70
2018-08-12T10:12:53.551Z,83.80
2018-08-12T10:15:22.118Z,86.10
2018-08-12T10:17:54.609Z,85.50
2018-08-12T10:20:23.065Z,86.60
2018-08-12T10:22:51.450Z,86.30
2018-08-12T10:25:19.867Z,83.80
2018-08-12T10:27:48.314Z,79.60
2018-08-12T10:30:16.775Z,80.00
2018-08-12T10:32:45.437Z,80.60
2018-08-12T10:35:15.428Z,75.40
2018-08-12T10:37:44.082Z,76.10
2018-08-12T10:40:16.340Z,74.20
2018-08-12T10:42:47.431Z,76.50
2018-08-12T10:45:15.887Z,77.00
2018-08-12T10:47:45.124Z,71.50
2018-08-12T10:50:16.956Z,72.50
2018-08-12T10:52:47.209Z,73.40
2018-08-12T10:55:17.220Z,71.60
2018-08-12T10:57:45.589Z,70.10
2018-08-12T11:00:17.089Z,69.80
2018-08-12T11:02:46.274Z,65.20
2018-08-12T11:05:16.120Z,62.00
2018-08-12T11:07:46.748Z,62.40
2018-08-12T11:10:16.478Z,61.90
2018-08-12T11:12:45.340Z,57.70
2018-08-12T11:15:14.346Z,56.50
2018-08-12T11:17:43.541Z,56.30
2018-08-12T11:20:13.079Z,54.30
2018-08-12T11:22:42.490Z,52.70
2018-08-12T11:25:11.755Z,52.90
2018-08-12T11:27:40.708Z,50.50
2018-08-12T11:30:12.108Z,50.90
2018-08-12T11:32:41.411Z,48.90
2018-08-12T11:35:13.696Z,48.60
2018-08-12T11:37:44.478Z,46.90
2018-08-12T11:40:15.058Z,48.00
2018-08-12T11:42:44.387Z,46.40
2018-08-12T11:45:16.791Z,46.10
2018-08-12T11:47:46.578Z,42.30
2018-08-12T11:50:16.351Z,44.90
2018-08-12T11:52:45.365Z,45.10
2018-08-12T11:55:16.546Z,45.50
2018-08-12T11:57:45.501Z,45.00
2018-08-12T12:00:18.093Z,45.30
2018-08-12T12:02:48.099Z,44.80
2018-08-12T12:05:16.512Z,43.80
2018-08-12T12:07:45.046Z,43.50
2018-08-12T12:10:16.068Z,43.40
2018-08-12T12:12:45.637Z,40.70
2018-08-12T12:15:16.824Z,46.70
2018-08-12T12:17:46.515Z,45.40
2018-08-12T12:20:16.933Z,46.10
2018-08-12T12:22:47.211Z,41.80
2018-08-12T12:25:16.962Z,45.00
2018-08-12T12:27:45.327Z,44.20
2018-08-12T12:30:15.211Z,42.10
2018-08-12T12:32:44.401Z,44.60
2018-08-12T12:35:12.902Z,45.00
2018-08-12T12:37:41.564Z,44.70
2018-08-12T12:40:12.310Z,43.20
2018-08-12T12:42:41.889Z,41.90
2018-08-12T12:45:11.874Z,44.80
2018-08-12T12:47:40.608Z,43.10
2018-08-12T12:50:11.173Z,41.50
2018-08-12T12:52:40.597Z,41.70
2018-08-12T12:55:09.007Z,42.30
2018-08-12T12:57:38.456Z,42.10
2018-08-12T13:00:10.555Z,40.20
2018-08-12T13:02:40.598Z,42.00
2018-08-12T13:05:11.156Z,39.80
2018-08-12T13:07:39.556Z,41.00
2018-08-12T13:10:09.185Z,43.10
2018-08-12T13:12:37.789Z,42.10
2018-08-12T13:15:07.146Z,41.30
2018-08-12T13:17:35.560Z,43.30
2018-08-12T13:20:04.514Z,43.10
2018-08-12T13:22:32.869Z,41.10
2018-08-12T13:25:01.335Z,43.40
2018-08-12T13:27:29.683Z,43.60
2018-08-12T13:29:58.024Z,41.30
2018-08-12T13:32:28.966Z,41.60
2018-08-12T13:34:57.347Z,41.90
2018-08-12T13:37:25.713Z,41.30
2018-08-12T13:39:54.036Z,42.00
2018-08-12T13:42:22.519Z,43.00
2018-08-12T13:44:50.902Z,43.30
2018-08-12T13:47:19.318Z,43.20
2018-08-12T13:49:47.713Z,44.10
2018-08-12T13:52:16.565Z,45.00
2018-08-12T13:54:44.942Z,44.30
2018-08-12T13:57:13.328Z,42.70
2018-08-12T13:59:41.785Z,44.80
2018-08-12T14:02:10.199Z,45.90
2018-08-12T14:04:38.565Z,47.60
2018-08-12T14:07:06.936Z,46.80
2018-08-12T14:09:35.269Z,44.20
2018-08-12T14:12:03.670Z,44.90
2018-08-12T14:14:32.727Z,46.20
2018-08-12T14:17:02.207Z,47.30
2018-08-12T14:19:31.224Z,46.50
2018-08-12T14:22:00.463Z,44.90
2018-08-12T14:24:28.809Z,46.80
2018-08-12T14:26:57.174Z,49.00
2018-08-12T14:29:25.529Z,47.20
2018-08-12T14:31:53.874Z,48.10
2018-08-12T14:34:23.290Z,47.10
2018-08-12T14:36:52.528Z,47.20
2018-08-12T14:39:30.913Z,47.00
2018-08-12T14:41:59.957Z,46.50
2018-08-12T14:44:28.353Z,48.20
2018-08-12T14:46:56.723Z,47.00
2018-08-12T14:49:25.075Z,49.10
2018-08-12T14:51:53.470Z,47.40
2018-08-12T14:54:21.818Z,47.60
2018-08-12T14:56:50.169Z,48.30
2018-08-12T14:59:18.501Z,46.20
2018-08-12T15:01:46.919Z,47.30
2018-08-12T15:04:15.911Z,48.60
2018-08-12T15:06:44.233Z,48.90
2018-08-12T15:09:13.147Z,46.90
2018-08-12T15:11:41.785Z,46.30
2018-08-12T15:14:10.193Z,49.60
2018-08-12T15:16:38.546Z,47.90
2018-08-12T15:19:06.902Z,46.90
2018-08-12T15:21:35.246Z,47.10
2018-08-12T15:24:03.658Z,46.10
2018-08-12T15:26:31.992Z,45.90
2018-08-12T15:29:00.434Z,48.30
2018-08-12T15:31:28.777Z,47.60
2018-08-12T15:33:57.168Z,48.60
2018-08-12T15:36:25.526Z,48.90
2018-08-12T15:38:53.902Z,49.00
2018-08-12T15:41:22.286Z,48.40
2018-08-12T15:43:50.713Z,49.20
2018-08-12T15:46:19.041Z,48.10
2018-08-12T15:48:47.402Z,48.20
2018-08-12T15:51:15.789Z,48.70
2018-08-12T15:53:44.163Z,49.00
2018-08-12T15:56:12.560Z,49.00
2018-08-12T15:58:40.981Z,48.50
2018-08-12T16:01:09.866Z,49.30
2018-08-12T16:03:38.358Z,47.20
2018-08-12T16:06:07.282Z,50.10
2018-08-12T16:08:36.299Z,48.40
2018-08-12T16:11:05.278Z,47.20
2018-08-12T16:13:34.177Z,49.40
2018-08-12T16:16:03.403Z,49.60
2018-08-12T16:18:32.646Z,50.20
2018-08-12T16:21:01.882Z,49.50
2018-08-12T16:23:30.504Z,48.60
2018-08-12T16:25:58.909Z,51.10
2018-08-12T16:28:27.288Z,50.80
2018-08-12T16:30:55.630Z,52.40
2018-08-12T16:33:23.974Z,52.90
2018-08-12T16:35:52.354Z,52.30
2018-08-12T16:38:20.771Z,50.80
2018-08-12T16:40:49.178Z,51.10
2018-08-12T16:43:17.518Z,50.60
2018-08-12T16:45:45.854Z,49.90
2018-08-12T16:48:14.248Z,49.50
2018-08-12T16:50:42.622Z,49.50
2018-08-12T16:53:10.965Z,50.00
2018-08-12T16:55:40.205Z,49.60
2018-08-12T16:58:09.778Z,50.80
2018-08-12T17:00:38.673Z,49.70
2018-08-12T17:03:07.862Z,50.80
2018-08-12T17:05:37.066Z,50.40
2018-08-12T17:08:06.387Z,51.40
2018-08-12T17:10:35.674Z,52.30
2018-08-12T17:13:04.975Z,50.30
2018-08-12T17:15:33.328Z,51.10
2018-08-12T17:18:01.856Z,50.70
2018-08-12T17:20:30.143Z,50.50
2018-08-12T17:22:58.492Z,50.50
2018-08-12T17:25:26.904Z,50.60
2018-08-12T17:27:55.209Z,50.10
2018-08-12T17:30:23.569Z,50.10
2018-08-12T17:32:53.865Z,51.30
2018-08-12T17:35:23.993Z,51.30
2018-08-12T17:37:53.376Z,51.60
2018-08-12T17:40:22.533Z,53.00
2018-08-12T17:42:51.582Z,51.60
2018-08-12T17:45:20.754Z,51.80
2018-08-12T17:47:50.444Z,52.90
2018-08-12T17:50:19.294Z,53.10
2018-08-12T17:52:48.573Z,57.60
2018-08-12T17:55:18.538Z,57.70
2018-08-12T17:57:48.373Z,57.00
2018-08-12T18:00:17.804Z,56.00
2018-08-12T18:02:46.759Z,56.50
2018-08-12T18:05:16.101Z,60.30
2018-08-12T18:07:45.205Z,60.30
2018-08-12T18:10:14.197Z,60.70
2018-08-12T18:12:43.086Z,63.60
2018-08-12T18:15:12.797Z,63.20
2018-08-12T18:17:43.583Z,65.10
2018-08-12T18:20:12.986Z,66.80
2018-08-12T18:22:42.029Z,67.70
2018-08-12T18:25:11.880Z,68.20
2018-08-12T18:27:41.463Z,68.10
2018-08-12T18:30:13.684Z,69.60
2018-08-12T18:32:43.363Z,71.50
2018-08-12T18:35:12.466Z,74.30
2018-08-12T18:37:41.169Z,71.50
2018-08-12T18:40:11.569Z,70.80
2018-08-12T18:42:41.544Z,72.50
2018-08-12T18:45:10.750Z,74.30
2018-08-12T18:47:39.788Z,75.60
2018-08-12T18:50:09.789Z,76.20
2018-08-12T18:52:39.673Z,76.20
2018-08-12T18:55:09.664Z,74.10
2018-08-12T18:57:38.736Z,77.50
2018-08-12T19:00:10.146Z,76.90
2018-08-12T19:02:39.714Z,80.30
2018-08-12T19:05:08.855Z,81.70
2018-08-12T19:07:37.890Z,82.00
2018-08-12T19:10:09.587Z,83.30
2018-08-12T19:12:38.597Z,82.60
2018-08-12T19:15:14.425Z,85.30
2018-08-12T19:17:43.421Z,86.90
2018-08-12T19:20:12.664Z,88.30
2018-08-12T19:22:43.086Z,89.10
2018-08-12T19:25:15.009Z,89.80
2018-08-12T19:27:43.874Z,90.00
2018-08-12T19:30:14.232Z,90.30
2018-08-12T19:32:43.291Z,90.50
2018-08-12T19:35:12.421Z,90.40
2018-08-12T19:37:42.906Z,90.60
2018-08-12T19:40:11.429Z,91.20
2018-08-12T19:42:41.590Z,92.40
2018-08-12T19:45:11.248Z,92.00
2018-08-12T19:47:39.693Z,92.30
2018-08-12T19:50:08.561Z,93.90
2018-08-12T19:52:36.953Z,95.00
2018-08-12T19:55:06.133Z,95.80
2018-08-12T19:57:34.474Z,96.00
2018-08-12T20:00:04.289Z,97.40
2018-08-12T20:02:32.636Z,98.90
2018-08-12T20:05:01.010Z,99.90
2018-08-12T20:07:29.617Z,99.90
2018-08-12T20:09:58.822Z,99.90
2018-08-12T20:12:27.709Z,99.90
2018-08-12T20:14:56.078Z,99.90
2018-08-12T20:17:24.518Z,99.90
2018-08-12T20:19:52.933Z,99.90
2018-08-12T20:22:22.442Z,99.90
2018-08-12T20:24:50.906Z,99.90
2018-08-12T20:27:19.974Z,99.90
2018-08-12T20:29:49.605Z,99.90
2018-08-12T20:32:18.065Z,99.90
2018-08-12T20:34:46.998Z,99.90
2018-08-12T20:37:16.104Z,99.90
2018-08-12T20:39:44.545Z,99.90
2018-08-12T20:42:12.937Z,99.90
2018-08-12T20:44:41.426Z,99.90
2018-08-12T20:47:13.306Z,99.90
2018-08-12T20:49:42.715Z,99.90
2018-08-12T20:52:11.252Z,99.90
2018-08-12T20:54:39.550Z,99.90
2018-08-12T20:57:08.178Z,99.90
2018-08-12T20:59:36.668Z,99.90
2018-08-12T21:02:05.071Z,99.90
2018-08-12T21:04:34.405Z,99.90
2018-08-12T21:07:03.919Z,99.90
2018-08-12T21:09:32.390Z,99.90
2018-08-12T21:12:02.587Z,99.90
2018-08-12T21:14:30.867Z,99.90
2018-08-12T21:16:59.350Z,99.90
2018-08-12T21:19:28.081Z,99.90
2018-08-12T21:21:56.509Z,99.90
2018-08-12T21:24:25.445Z,99.90
2018-08-12T21:26:53.762Z,99.90
2018-08-12T21:29:22.120Z,99.90
2018-08-12T21:31:50.457Z,99.90
2018-08-12T21:34:18.841Z,99.90
2018-08-12T21:36:47.632Z,99.90
2018-08-12T21:39:16.474Z,99.90
2018-08-12T21:41:44.808Z,99.90
2018-08-12T21:44:13.149Z,99.90
2018-08-12T21:46:41.489Z,99.90
2018-08-12T21:49:09.830Z,99.90
2018-08-12T21:51:38.774Z,99.90
2018-08-12T21:54:09.243Z,99.90
2018-08-12T21:56:37.724Z,99.90
2018-08-12T21:59:06.093Z,99.90
2018-08-12T22:01:34.413Z,99.90
2018-08-12T22:04:02.789Z,99.90
2018-08-12T22:06:31.126Z,99.90
2018-08-12T22:08:59.491Z,99.90
2018-08-12T22:11:27.861Z,99.90
2018-08-12T22:13:56.237Z,99.90
2018-08-12T22:16:24.570Z,99.90
2018-08-12T22:18:52.951Z,99.90
2018-08-12T22:21:21.318Z,99.90
2018-08-12T22:23:49.665Z,99.90
2018-08-12T22:26:18.025Z,99.90
2018-08-12T22:28:46.429Z,99.90
2018-08-12T22:31:14.782Z,99.90
2018-08-12T22:33:43.173Z,99.90
2018-08-12T22:36:11.523Z,99.90
2018-08-12T22:38:39.873Z,99.90
2018-08-12T22:41:08.221Z,99.90
2018-08-12T22:43:36.577Z,99.90
2018-08-12T22:46:04.934Z,99.90
2018-08-12T22:48:33.431Z,99.90
2018-08-12T22:51:01.796Z,99.90
2018-08-12T22:53:30.172Z,99.90
2018-08-12T22:55:58.549Z,99.90
2018-08-12T22:58:26.892Z,99.90
2018-08-12T23:00:55.229Z,99.90
2018-08-12T23:03:23.577Z,99.90
2018-08-12T23:05:51.909Z,99.90
2018-08-12T23:08:20.265Z,99.90
2018-08-12T23:10:48.681Z,99.90
2018-08-12T23:13:17.020Z,99.90
2018-08-12T23:16:23.058Z,99.90
2018-08-12T23:18:51.460Z,99.90
2018-08-12T23:21:20.322Z,99.90
2018-08-12T23:23:49.658Z,99.90
2018-08-12T23:26:20.064Z,99.90
2018-08-12T23:28:48.474Z,99.90
2018-08-12T23:31:16.824Z,99.90
2018-08-12T23:33:45.193Z,99.90
2018-08-12T23:36:13.627Z,99.90
2018-08-12T23:38:41.962Z,99.90
2018-08-12T23:41:11.028Z,99.90
2018-08-12T23:43:39.383Z,99.90
2018-08-12T23:46:08.319Z,99.90
2018-08-12T23:48:36.717Z,99.90
2018-08-12T23:51:05.096Z,99.90
2018-08-12T23:53:33.505Z,99.90
2018-08-12T23:56:01.913Z,99.90
2018-08-12T23:58:30.245Z,99.90
